地図

経路データ

SID SEASON NUMBER BASIN SUBBASIN NAME ISO_TIME NATURE LAT LON WMO_WIND WMO_PRES WMO_AGENCY TRACK_TYPE DIST2LAND LANDFALL IFLAG USA_AGENCY USA_ATCF_ID USA_LAT USA_LON USA_RECORD USA_STATUS USA_WIND USA_PRES USA_SSHS USA_R34_NE USA_R34_SE USA_R34_SW USA_R34_NW USA_R50_NE USA_R50_SE USA_R50_SW USA_R50_NW USA_R64_NE USA_R64_SE USA_R64_SW USA_R64_NW USA_POCI USA_ROCI USA_RMW USA_EYE TOKYO_LAT TOKYO_LON TOKYO_GRADE TOKYO_WIND TOKYO_PRES TOKYO_R50_DIR TOKYO_R50_LONG TOKYO_R50_SHORT TOKYO_R30_DIR TOKYO_R30_LONG TOKYO_R30_SHORT TOKYO_LAND CMA_LAT CMA_LON CMA_CAT CMA_WIND CMA_PRES HKO_LAT HKO_LON HKO_CAT HKO_WIND HKO_PRES NEWDELHI_LAT NEWDELHI_LON NEWDELHI_GRADE NEWDELHI_WIND NEWDELHI_PRES NEWDELHI_CI NEWDELHI_DP NEWDELHI_POCI REUNION_LAT REUNION_LON REUNION_TYPE REUNION_WIND REUNION_PRES REUNION_TNUM REUNION_CI REUNION_RMW REUNION_R34_NE REUNION_R34_SE REUNION_R34_SW REUNION_R34_NW REUNION_R50_NE REUNION_R50_SE REUNION_R50_SW REUNION_R50_NW REUNION_R64_NE REUNION_R64_SE REUNION_R64_SW REUNION_R64_NW BOM_LAT BOM_LON BOM_TYPE BOM_WIND BOM_PRES BOM_TNUM BOM_CI BOM_RMW BOM_R34_NE BOM_R34_SE BOM_R34_SW BOM_R34_NW BOM_R50_NE BOM_R50_SE BOM_R50_SW BOM_R50_NW BOM_R64_NE BOM_R64_SE BOM_R64_SW BOM_R64_NW BOM_ROCI BOM_POCI BOM_EYE BOM_POS_METHOD BOM_PRES_METHOD NADI_LAT NADI_LON NADI_CAT NADI_WIND NADI_PRES WELLINGTON_LAT WELLINGTON_LON WELLINGTON_WIND WELLINGTON_PRES DS824_LAT DS824_LON DS824_STAGE DS824_WIND DS824_PRES TD9636_LAT TD9636_LON TD9636_STAGE TD9636_WIND TD9636_PRES TD9635_LAT TD9635_LON TD9635_WIND TD9635_PRES TD9635_ROCI NEUMANN_LAT NEUMANN_LON NEUMANN_CLASS NEUMANN_WIND NEUMANN_PRES MLC_LAT MLC_LON MLC_CLASS MLC_WIND MLC_PRES USA_GUST BOM_GUST BOM_GUST_PER REUNION_GUST REUNION_GUST_PER USA_SEAHGT USA_SEARAD_NE USA_SEARAD_SE USA_SEARAD_SW USA_SEARAD_NW STORM_SPEED STORM_DIR
1855131S08073 1855 4 SI MM NOT_NAMED 1855-05-11 06:00:00 NR -7.60000 73.4000 reunion main 1705 1705 _____O________ -1 -7.60000 73.4000 99 9.90000 9 228
1855131S08073 1855 4 SI MM NOT_NAMED 1855-05-11 09:00:00 NR -7.91603 73.0485 main 1755 1755 _____P________ -1 -7.91603 73.0485 99 9 228
1855131S08073 1855 4 SI MM NOT_NAMED 1855-05-11 12:00:00 NR -8.22921 72.6990 main 1801 1801 _____P________ -1 -8.22921 72.6990 99 9 228
1855131S08073 1855 4 SI MM NOT_NAMED 1855-05-11 15:00:00 NR -8.53686 72.3544 main 1846 1846 _____P________ -1 -8.53686 72.3544 99 9 228
1855131S08073 1855 4 SI MM NOT_NAMED 1855-05-11 18:00:00 NR -8.83633 72.0173 main 1896 1896 _____P________ -1 -8.83633 72.0173 99 9 228
1855131S08073 1855 4 SI MM NOT_NAMED 1855-05-11 21:00:00 NR -9.12498 71.6905 main 1942 1896 _____P________ -1 -9.12498 71.6905 99 9 228
1855131S08073 1855 4 SI MM NOT_NAMED 1855-05-12 00:00:00 NR -9.40019 71.3769 main 1896 1857 _____P________ -1 -9.40019 71.3769 99 8 228
1855131S08073 1855 4 SI MM NOT_NAMED 1855-05-12 03:00:00 NR -9.65939 71.0791 main 1850 1810 _____P________ -1 -9.65939 71.0791 99 8 229
1855131S08073 1855 4 SI MM NOT_NAMED 1855-05-12 06:00:00 NR -9.90000 70.8000 reunion main 1810 1779 _____O________ -1 -9.90000 70.8000 99 9.90000 7 229
1855131S08073 1855 4 SI MM NOT_NAMED 1855-05-12 09:00:00 NR -10.1207 70.5418 main 1770 1739 _____P________ -1 -10.1207 70.5418 99 6 229
1855131S08073 1855 4 SI MM NOT_NAMED 1855-05-12 12:00:00 NR -10.3254 70.3046 main 1739 1708 _____P________ -1 -10.3254 70.3046 99 6 228
1855131S08073 1855 4 SI MM NOT_NAMED 1855-05-12 15:00:00 NR -10.5191 70.0880 main 1708 1677 _____P________ -1 -10.5191 70.0880 99 6 227
1855131S08073 1855 4 SI MM NOT_NAMED 1855-05-12 18:00:00 NR -10.7069 69.8917 main 1677 1646 _____P________ -1 -10.7069 69.8917 99 5 224
1855131S08073 1855 4 SI MM NOT_NAMED 1855-05-12 21:00:00 NR -10.8939 69.7151 main 1646 1623 _____P________ -1 -10.8939 69.7151 99 5 221
1855131S08073 1855 4 SI MM NOT_NAMED 1855-05-13 00:00:00 NR -11.0850 69.5580 main 1623 1592 _____P________ -1 -11.0850 69.5580 99 5 217
1855131S08073 1855 4 SI MM NOT_NAMED 1855-05-13 03:00:00 NR -11.2854 69.4197 main 1592 1569 _____P________ -1 -11.2854 69.4197 99 5 211
1855131S08073 1855 4 SI MM NOT_NAMED 1855-05-13 06:00:00 NR -11.5000 69.3000 reunion main 1569 1547 _____O________ -1 -11.5000 69.3000 99 9.90000 5 207
1855131S08073 1855 4 SI MM NOT_NAMED 1855-05-13 09:00:00 NR -11.7393 69.1813 main 1547 1517 _____P________ -1 -11.7393 69.1813 99 5 204
1855131S08073 1855 4 SI MM NOT_NAMED 1855-05-13 12:00:00 NR -11.9904 69.0826 main 1517 1495 _____P________ -1 -11.9904 69.0826 99 5 199
1855131S08073 1855 4 SI MM NOT_NAMED 1855-05-13 15:00:00 NR -12.2525 69.0019 main 1488 1466 _____P________ -1 -12.2525 69.0019 99 6 195
1855131S08073 1855 4 SI MM NOT_NAMED 1855-05-13 18:00:00 NR -12.5248 68.9373 main 1466 1446 _____P________ -1 -12.5248 68.9373 99 6 191
1855131S08073 1855 4 SI MM NOT_NAMED 1855-05-13 21:00:00 NR -12.8065 68.8867 main 1446 1426 _____P________ -1 -12.8065 68.8867 99 6 189
1855131S08073 1855 4 SI MM NOT_NAMED 1855-05-14 00:00:00 NR -13.0968 68.8483 main 1418 1399 _____P________ -1 -13.0968 68.8483 99 6 186
1855131S08073 1855 4 SI MM NOT_NAMED 1855-05-14 03:00:00 NR -13.3949 68.8201 main 1399 1380 _____P________ -1 -13.3949 68.8201 99 6 183
1855131S08073 1855 4 SI MM NOT_NAMED 1855-05-14 06:00:00 NR -13.7000 68.8000 reunion main 1380 1362 _____O________ -1 -13.7000 68.8000 99 9.90000 6 185
1855131S08073 1855 4 SI MM NOT_NAMED 1855-05-14 09:00:00 NR -13.9740 68.7673 main 1362 1341 _____P________ -1 -13.9740 68.7673 99 6 186
1855131S08073 1855 4 SI MM NOT_NAMED 1855-05-14 12:00:00 NR -14.2524 68.7441 main 1336 1324 _____P________ -1 -14.2524 68.7441 99 6 184
1855131S08073 1855 4 SI MM NOT_NAMED 1855-05-14 15:00:00 NR -14.5404 68.7302 main 1324 1308 _____P________ -1 -14.5404 68.7302 99 6 182
1855131S08073 1855 4 SI MM NOT_NAMED 1855-05-14 18:00:00 NR -14.8429 68.7257 main 1308 1292 _____P________ -1 -14.8429 68.7257 99 6 0
1855131S08073 1855 4 SI MM NOT_NAMED 1855-05-14 21:00:00 NR -15.1650 68.7304 main 1287 1271 _____P________ -1 -15.1650 68.7304 99 7 179
1855131S08073 1855 4 SI MM NOT_NAMED 1855-05-15 00:00:00 NR -15.5119 68.7444 main 1271 1262 _____P________ -1 -15.5119 68.7444 99 7 177
1855131S08073 1855 4 SI MM NOT_NAMED 1855-05-15 03:00:00 NR -15.8885 68.7676 main 1262 1244 _____P________ -1 -15.8885 68.7676 99 8 176
1855131S08073 1855 4 SI MM NOT_NAMED 1855-05-15 06:00:00 NR -16.3000 68.8000 reunion main 1244 1223 _____O________ -1 -16.3000 68.8000 99 9.90000 9 175
1855131S08073 1855 4 SI MM NOT_NAMED 1855-05-15 09:00:00 NR -16.7947 68.8405 main 1223 1215 _____P________ -1 -16.7947 68.8405 99 10 175
1855131S08073 1855 4 SI MM NOT_NAMED 1855-05-15 12:00:00 NR -17.3299 68.8919 main 1215 1196 _____P________ -1 -17.3299 68.8919 99 11 175
1855131S08073 1855 4 SI MM NOT_NAMED 1855-05-15 15:00:00 NR -17.8914 68.9520 main 1206 1193 _____P________ -1 -17.8914 68.9520 99 11 174
1855131S08073 1855 4 SI MM NOT_NAMED 1855-05-15 18:00:00 NR -18.4651 69.0183 main 1191 1187 _____P________ -1 -18.4651 69.0183 99 12 174
1855131S08073 1855 4 SI MM NOT_NAMED 1855-05-15 21:00:00 NR -19.0370 69.0887 main 1191 1184 _____P________ -1 -19.0370 69.0887 99 11 173
1855131S08073 1855 4 SI MM NOT_NAMED 1855-05-16 00:00:00 NR -19.5928 69.1607 main 1193 1189 _____P________ -1 -19.5928 69.1607 99 11 173
1855131S08073 1855 4 SI MM NOT_NAMED 1855-05-16 03:00:00 NR -20.1185 69.2320 main 1189 1188 _____P________ -1 -20.1185 69.2320 99 10 173
1855131S08073 1855 4 SI MM NOT_NAMED 1855-05-16 06:00:00 NR -20.6000 69.3000 reunion main 1198 1198 _____O________ -1 -20.6000 69.3000 99 9.90000 9 172
1855131S08073 1855 4 SI MM NOT_NAMED 1855-05-16 09:00:00 NR -21.0269 69.3628 main 1209 1209 _____P________ -1 -21.0269 69.3628 99 8 172
1855131S08073 1855 4 SI MM NOT_NAMED 1855-05-16 12:00:00 NR -21.4030 69.4205 main 1211 1211 _____P________ -1 -21.4030 69.4205 99 7 171
1855131S08073 1855 4 SI MM NOT_NAMED 1855-05-16 15:00:00 NR -21.7355 69.4738 main 1224 1224 _____P________ -1 -21.7355 69.4738 99 6 171
1855131S08073 1855 4 SI MM NOT_NAMED 1855-05-16 18:00:00 NR -22.0318 69.5234 main 1227 1227 _____P________ -1 -22.0318 69.5234 99 6 171
1855131S08073 1855 4 SI MM NOT_NAMED 1855-05-16 21:00:00 NR -22.2991 69.5701 main 1242 1242 _____P________ -1 -22.2991 69.5701 99 5 170
1855131S08073 1855 4 SI MM NOT_NAMED 1855-05-17 00:00:00 NR -22.5448 69.6145 main 1245 1245 _____P________ -1 -22.5448 69.6145 99 5 171
1855131S08073 1855 4 SI MM NOT_NAMED 1855-05-17 03:00:00 NR -22.7760 69.6576 main 1261 1261 _____P________ -1 -22.7760 69.6576 99 5 171
1855131S08073 1855 4 SI MM NOT_NAMED 1855-05-17 06:00:00 NR -23.0000 69.7000 reunion main 1265 _____O________ -1 -23.0000 69.7000 99 9.90000 5 170

IBTrACS Databaseについて

本データベースは、米国NOAAが公開する1842年以降の世界の熱帯低気圧のベストトラックデータアーカイブInternational Best Track Archive for Climate Stewardship (IBTrACS)を、ウェブで閲覧しやすい形式に変換したものです。

最終更新日:2021-12-03